Terminal Aerodrome Forecast
Issued by NWS Wilmington, NC

Home | Current Version | Previous Version | Text Only | Print | Product List | Glossary On
Versions: 1 2 3 4 5 6 7 8 9 10 11 12 13 14 15 16 17 18 19 20 21
533
FTUS42 KILM 232321
TAFFLO
TAF
KFLO 232321Z 2400/2424 20007KT P6SM SCT015 OVC060
      TEMPO 2400/2403 5SM -SHRA BKN015
     FM240300 22007KT P6SM OVC015
      TEMPO 2403/2405 5SM -SHRA OVC008
     FM240500 23004KT P6SM VCSH OVC008
     FM240900 VRB03KT 5SM BR OVC008
     FM241500 18006KT P6SM SHRA VCTS OVC015CB
     FM241600 18008KT P6SM SHRA VCTS OVC025CB
     FM242100 19012KT P6SM SHRA VCTS OVC020CB=

USA.gov is the U.S. government's official web portal to all federal, state and local government web resources and services.